Time;durP1;ratioP1;P1;durP2;ratioP2;P2;SDS_P1;SDS_P2;PMS_P1;PMS_P2;Temp;Humidity;BMP_temperature;BMP_pressure;BME280_temperature;BME280_humidity;BME280_pressure;Samples;Min_cycle;Max_cycle;Signal;HPM_P1;HPM_P2
2021/05/12 01:00:25;;;;;;;15.70;7.67;;;13.20;92.70;;;;;;6266098;22;20026;31
2021/05/12 01:02:52;;;;;;;16.05;7.68;;;13.30;92.60;;;;;;6251629;22;20167;-62
2021/05/12 01:05:30;;;;;;;16.65;8.43;;;13.30;92.40;;;;;;6252486;22;20309;-62
2021/05/12 01:07:58;;;;;;;14.07;7.53;;;13.30;92.60;;;;;;6255856;22;21282;-63
2021/05/12 01:49:06;;;;;;;18.10;9.05;;;13.10;93.00;;;;;;6255947;22;20042;-63
2021/05/12 01:51:33;;;;;;;17.35;9.38;;;13.10;92.90;;;;;;6250562;22;21055;-63
2021/05/12 01:54:07;;;;;;;18.73;9.48;;;13.10;92.70;;;;;;6253573;22;20034;-65
2021/05/12 01:56:36;;;;;;;18.45;9.70;;;13.10;92.90;;;;;;6256277;22;20442;-64
2021/05/12 02:33:57;;;;;;;12.95;6.75;;;13.00;91.30;;;;;;6245433;22;21058;31
2021/05/12 02:36:24;;;;;;;14.25;7.90;;;13.00;91.50;;;;;;6247325;22;20031;-63
2021/05/12 02:38:51;;;;;;;13.02;7.53;;;12.90;91.80;;;;;;6247005;22;20030;-63
2021/05/12 03:19:59;;;;;;;18.60;6.65;;;12.60;91.00;;;;;;6249082;22;20272;31
2021/05/12 03:22:26;;;;;;;14.20;6.95;;;12.60;91.20;;;;;;6254255;22;20027;-61
2021/05/12 03:24:53;;;;;;;16.25;7.00;;;12.60;91.10;;;;;;6246564;22;20023;-63
2021/05/12 03:27:22;;;;;;;14.07;7.20;;;12.60;91.40;;;;;;6248987;22;20101;31
2021/05/12 03:29:49;;;;;;;11.50;6.40;;;12.60;91.30;;;;;;6242381;22;20027;-62
2021/05/12 03:32:16;;;;;;;10.90;6.47;;;12.50;91.20;;;;;;6257761;22;20681;-62
2021/05/12 03:34:43;;;;;;;12.32;6.40;;;12.60;91.40;;;;;;6256080;22;20023;-63
2021/05/12 03:37:11;;;;;;;11.13;6.35;;;12.60;91.00;;;;;;6254537;22;20023;-63
2021/05/12 03:39:38;;;;;;;13.20;6.95;;;12.60;91.10;;;;;;6253249;22;20043;-65
2021/05/12 03:42:06;;;;;;;14.15;6.32;;;12.60;91.10;;;;;;6251197;22;20020;-65
2021/05/12 03:44:33;;;;;;;13.00;7.57;;;12.60;91.20;;;;;;6248447;22;20070;-64
2021/05/12 03:47:00;;;;;;;13.52;6.90;;;12.60;91.10;;;;;;6257246;22;20015;-64
2021/05/12 03:49:33;;;;;;;13.95;7.35;;;12.50;91.00;;;;;;6254003;22;20034;-65
2021/05/12 05:06:44;;;;;;;14.10;6.68;;;12.60;92.20;;;;;;6211134;22;20032;31
2021/05/12 05:09:11;;;;;;;15.68;7.65;;;12.60;92.00;;;;;;6227087;22;21084;-63
2021/05/12 05:11:38;;;;;;;13.60;8.05;;;12.60;92.00;;;;;;6236383;22;20039;-63
2021/05/12 05:14:05;;;;;;;13.65;7.93;;;12.60;91.70;;;;;;6243477;22;20023;-64
2021/05/12 05:16:33;;;;;;;13.95;7.85;;;12.60;91.70;;;;;;6236161;22;20023;-64
2021/05/12 05:19:00;;;;;;;14.63;7.50;;;12.60;91.70;;;;;;6244506;22;20019;-62
2021/05/12 05:21:29;;;;;;;13.93;8.77;;;12.70;91.40;;;;;;6243175;22;20035;-63
2021/05/12 05:23:56;;;;;;;13.45;7.22;;;12.70;91.60;;;;;;6236814;22;20038;-63
2021/05/12 05:26:24;;;;;;;15.48;7.53;;;12.70;91.60;;;;;;6234519;22;20024;-64
2021/05/12 05:28:51;;;;;;;23.08;8.07;;;12.70;91.20;;;;;;6242174;22;20026;-64
2021/05/12 05:31:18;;;;;;;13.90;6.68;;;12.70;91.30;;;;;;6237491;22;20274;-63
2021/05/12 06:18:39;;;;;;;13.90;7.25;;;13.60;87.90;;;;;;5889543;22;20456;-64
2021/05/12 06:22:03;;;;;;;13.82;7.95;;;13.60;86.90;;;;;;5681859;23;20025;31
2021/05/12 06:24:43;;;;;;;12.63;6.78;;;13.60;87.00;;;;;;5641035;23;20878;31
2021/05/12 06:30:50;;;;;;;16.77;6.72;;;13.60;87.00;;;;;;5561046;23;20204;31
2021/05/12 06:44:02;;;;;;;14.52;7.05;;;13.80;87.20;;;;;;5490135;23;21263;31
2021/05/12 06:46:31;;;;;;;17.33;8.10;;;13.80;85.90;;;;;;5554164;23;20112;-63
2021/05/12 06:51:41;;;;;;;16.40;8.25;;;13.90;86.00;;;;;;5571322;23;20498;-63
2021/05/12 06:54:08;;;;;;;16.08;8.85;;;13.70;86.30;;;;;;5571455;23;20041;-63
2021/05/12 06:56:36;;;;;;;15.65;8.77;;;13.70;85.70;;;;;;5591770;23;20035;-62
2021/05/12 06:59:03;;;;;;;18.13;8.88;;;13.70;85.90;;;;;;5561982;23;20370;-62
2021/05/12 07:01:31;;;;;;;18.60;9.05;;;13.80;85.50;;;;;;5493098;23;20262;-63
2021/05/12 07:03:58;;;;;;;19.90;9.60;;;13.80;85.50;;;;;;5570110;23;20064;-65
2021/05/12 07:06:25;;;;;;;13.80;8.75;;;13.80;85.30;;;;;;5587445;23;20232;-65
2021/05/12 07:08:52;;;;;;;19.83;10.32;;;13.90;85.10;;;;;;5496684;23;20061;-63
2021/05/12 07:11:21;;;;;;;16.73;9.30;;;13.90;84.60;;;;;;5488130;23;20116;-64
2021/05/12 07:13:51;;;;;;;16.55;9.50;;;14.10;85.00;;;;;;5493420;23;20060;-63
2021/05/12 07:16:18;;;;;;;;;;;13.90;85.40;;;;;;5574914;23;21417;-63
2021/05/12 07:18:45;;;;;;;15.20;8.43;;;14.00;85.00;;;;;;5564739;23;19922;-63
2021/05/12 07:21:12;;;;;;;20.27;9.35;;;14.10;84.90;;;;;;5570784;23;21557;-63
2021/05/12 07:23:42;;;;;;;18.88;9.43;;;14.20;84.50;;;;;;5604283;23;20031;-63
2021/05/12 07:26:09;;;;;;;22.65;10.85;;;14.20;84.40;;;;;;5605631;23;20832;-64
2021/05/12 07:28:37;;;;;;;22.35;11.07;;;14.30;84.20;;;;;;5451060;23;20075;-65
2021/05/12 07:40:19;;;;;;;19.95;10.60;;;14.40;82.80;;;;;;5408040;23;20061;31
2021/05/12 07:42:49;;;;;;;22.13;11.27;;;14.40;82.70;;;;;;5565898;23;20351;-65
2021/05/12 08:01:30;;;;;;;23.92;12.27;;;15.50;77.60;;;;;;5434297;23;20057;-85
2021/05/12 08:03:58;;;;;;;29.27;12.63;;;15.80;75.80;;;;;;4855757;29;20061;-87
2021/05/12 08:06:25;;;;;;;22.50;11.10;;;16.30;76.70;;;;;;4876900;29;20175;-84
2021/05/12 08:08:54;;;;;;;25.95;12.23;;;16.30;75.20;;;;;;4876761;29;20243;-86
2021/05/12 08:11:22;;;;;;;25.38;12.88;;;16.20;74.30;;;;;;4865002;29;20057;-87
2021/05/12 08:13:50;;;;;;;22.02;11.60;;;16.30;74.50;;;;;;4876824;29;20327;-89
2021/05/12 08:16:17;;;;;;;23.00;10.23;;;16.10;74.50;;;;;;4861326;29;20071;-87
2021/05/12 08:18:48;;;;;;;29.02;12.25;;;15.90;75.30;;;;;;4860105;29;20053;-86
2021/05/12 08:21:15;;;;;;;23.65;12.10;;;15.90;76.20;;;;;;4865565;29;20055;-87
2021/05/12 08:23:42;;;;;;;22.52;12.52;;;16.10;74.60;;;;;;4868518;29;20152;-86
2021/05/12 08:26:11;;;;;;;25.05;13.82;;;16.40;73.30;;;;;;4877879;29;20061;-84
2021/05/12 08:28:40;;;;;;;25.13;12.13;;;16.40;72.40;;;;;;4861091;29;20073;-85
2021/05/12 08:31:07;;;;;;;23.67;13.25;;;16.50;72.40;;;;;;4874785;29;20339;-87
2021/05/12 08:33:58;;;;;;;21.85;11.90;;;16.70;71.50;;;;;;4865688;29;20087;-85
2021/05/12 08:36:30;;;;;;;21.98;12.30;;;16.80;70.80;;;;;;4895538;23;20045;-86
2021/05/12 08:38:58;;;;;;;21.13;11.30;;;16.40;72.50;;;;;;4858829;29;20050;-87
2021/05/12 08:41:26;;;;;;;24.00;12.27;;;16.50;73.30;;;;;;4831841;29;20088;-88
2021/05/12 08:43:55;;;;;;;21.27;11.82;;;16.70;72.60;;;;;;4857815;29;20053;-83
2021/05/12 08:46:25;;;;;;;20.05;11.10;;;16.80;72.10;;;;;;4853540;29;20057;-87
2021/05/12 08:48:55;;;;;;;21.88;11.55;;;16.90;70.60;;;;;;4842817;29;20060;-87
2021/05/12 08:51:26;;;;;;;27.60;12.60;;;16.70;71.10;;;;;;4857254;29;20049;-85
2021/05/12 08:53:55;;;;;;;24.15;11.13;;;16.60;70.90;;;;;;4872486;29;20064;-87
2021/05/12 08:56:25;;;;;;;24.13;10.60;;;17.00;70.10;;;;;;4855165;29;20240;-85
2021/05/12 08:58:52;;;;;;;23.42;11.02;;;17.20;70.50;;;;;;4849458;29;20050;-87
2021/05/12 09:01:20;;;;;;;20.40;11.02;;;17.00;69.30;;;;;;4851305;29;20069;-87
2021/05/12 09:03:47;;;;;;;25.48;10.30;;;16.80;68.30;;;;;;4865220;29;20277;-87
2021/05/12 09:06:16;;;;;;;21.33;10.70;;;16.70;69.50;;;;;;4852010;29;20225;-85
2021/05/12 09:08:46;;;;;;;19.02;10.00;;;16.60;70.00;;;;;;4868426;29;20161;-85
2021/05/12 09:11:15;;;;;;;19.75;10.27;;;16.80;70.40;;;;;;4870325;29;20376;-87
2021/05/12 09:13:46;;;;;;;18.20;10.27;;;17.00;68.50;;;;;;4839536;29;20160;-87
2021/05/12 09:16:18;;;;;;;20.48;10.18;;;17.10;69.00;;;;;;4836530;29;20053;-84
2021/05/12 09:18:46;;;;;;;19.23;10.77;;;17.10;69.80;;;;;;4851667;29;20056;-87
2021/05/12 09:21:15;;;;;;;20.02;10.20;;;16.90;70.40;;;;;;4866411;29;20045;-87
2021/05/12 09:23:43;;;;;;;21.50;9.95;;;17.10;68.60;;;;;;4841060;29;20389;-85
2021/05/12 09:26:15;;;;;;;23.20;9.38;;;17.10;68.10;;;;;;4848483;29;20061;-87
2021/05/12 09:28:45;;;;;;;19.30;11.35;;;17.50;67.00;;;;;;4835810;29;20344;-86
2021/05/12 09:31:14;;;;;;;22.55;10.23;;;17.60;66.90;;;;;;4868159;29;20045;-84
2021/05/12 09:33:43;;;;;;;20.37;10.00;;;17.60;65.70;;;;;;4866704;29;20073;-86
2021/05/12 09:36:25;;;;;;;16.53;8.43;;;17.40;65.60;;;;;;4866997;29;20105;-86
2021/05/12 09:38:55;;;;;;;19.25;8.23;;;17.50;65.70;;;;;;4838560;29;20041;-84
2021/05/12 09:41:32;;;;;;;17.08;9.27;;;17.60;65.30;;;;;;4867500;29;20045;-87
2021/05/12 09:43:59;;;;;;;20.67;9.50;;;17.60;65.70;;;;;;4871483;29;20385;-85
2021/05/12 09:46:32;;;;;;;20.38;11.35;;;17.20;67.50;;;;;;4852956;29;20073;-86
2021/05/12 09:49:14;;;;;;;20.80;10.82;;;17.00;67.70;;;;;;4850059;29;20041;-85
2021/05/12 09:51:44;;;;;;;14.15;8.65;;;17.10;67.50;;;;;;4851037;29;20299;-79
2021/05/12 09:54:17;;;;;;;18.05;7.68;;;17.10;66.20;;;;;;4847620;29;20056;-82
2021/05/12 09:56:51;;;;;;;18.63;9.40;;;16.90;67.30;;;;;;4852727;29;20306;-86
2021/05/12 09:59:20;;;;;;;19.00;8.68;;;17.10;66.80;;;;;;4867651;29;20410;-83
2021/05/12 10:01:50;;;;;;;16.42;8.25;;;17.20;67.10;;;;;;4842929;29;20049;-83
2021/05/12 10:04:34;;;;;;;23.30;9.02;;;17.30;66.30;;;;;;4833462;29;20177;-82
2021/05/12 10:07:03;;;;;;;15.55;7.95;;;17.70;65.60;;;;;;4845443;29;20105;-84
2021/05/12 10:09:31;;;;;;;18.65;8.68;;;17.60;64.20;;;;;;4835931;29;20269;-85
2021/05/12 10:12:07;;;;;;;13.48;7.13;;;17.50;64.70;;;;;;4849379;29;20061;-80
2021/05/12 10:14:36;;;;;;;16.83;7.75;;;17.10;65.30;;;;;;5067500;23;20028;-84
2021/05/12 10:17:06;;;;;;;13.23;7.22;;;17.10;65.40;;;;;;4823327;29;20086;-84
2021/05/12 10:19:33;;;;;;;;;;;17.00;66.10;;;;;;4836954;29;20532;-83
2021/05/12 10:22:02;;;;;;;20.38;8.60;;;17.00;66.60;;;;;;4839836;29;19999;-81
2021/05/12 10:24:33;;;;;;;15.73;8.65;;;16.90;65.70;;;;;;4840269;29;20057;-82
2021/05/12 10:27:03;;;;;;;20.65;9.05;;;16.80;66.30;;;;;;4864171;29;20067;-84
2021/05/12 10:29:31;;;;;;;13.65;7.57;;;16.50;66.60;;;;;;4864330;29;20068;-85
2021/05/12 10:31:59;;;;;;;16.20;8.65;;;16.60;66.10;;;;;;4843981;29;20049;-86
2021/05/12 10:34:46;;;;;;;17.42;8.18;;;16.40;67.30;;;;;;4833962;29;20057;-85
2021/05/12 10:37:25;;;;;;;16.98;8.10;;;16.20;67.90;;;;;;4850578;29;20038;-84
2021/05/12 10:39:58;;;;;;;15.15;6.55;;;16.20;68.60;;;;;;4857341;29;20057;-83
2021/05/12 10:42:59;;;;;;;14.10;7.07;;;16.30;67.90;;;;;;4850206;29;20115;-86
2021/05/12 10:45:44;;;;;;;;;;;16.60;67.70;;;;;;4850084;29;20049;-85
2021/05/12 10:48:32;;;;;;;11.63;6.72;;;16.80;64.70;;;;;;4863746;29;19919;-85
2021/05/12 10:51:00;;;;;;;16.60;6.82;;;16.80;65.10;;;;;;4842585;29;20057;-85
2021/05/12 10:53:35;;;;;;;11.27;6.50;;;16.90;64.20;;;;;;4857590;29;20124;-82
2021/05/12 10:56:08;;;;;;;16.88;5.78;;;16.80;63.20;;;;;;4856162;29;20069;-84
2021/05/12 10:58:56;;;;;;;16.25;5.97;;;16.60;63.60;;;;;;4869555;29;20072;-86
2021/05/12 11:01:51;;;;;;;13.73;6.66;;;16.50;63.60;;;;;;4687954;29;10000818;-85
2021/05/12 11:04:21;;;;;;;12.75;6.40;;;16.70;63.60;;;;;;2691049;29;10002061;-85
2021/05/12 11:07:10;;;;;;;;;;;16.70;63.80;;;;;;4868152;29;20267;-85
2021/05/12 11:09:50;;;;;;;15.40;5.20;;;16.70;62.90;;;;;;4872953;29;20130;-85
2021/05/12 11:12:38;;;;;;;14.95;5.97;;;16.80;62.70;;;;;;4855273;29;20065;-82
2021/05/12 11:15:14;;;;;;;8.50;4.68;;;16.90;61.90;;;;;;4859097;29;20048;-85
2021/05/12 11:17:48;;;;;;;10.20;5.65;;;17.10;61.70;;;;;;4852836;29;20053;-81
2021/05/12 11:20:26;;;;;;;10.07;4.53;;;17.30;61.30;;;;;;4852254;29;20050;-85
2021/05/12 11:22:58;;;;;;;12.30;5.38;;;17.40;60.90;;;;;;4857898;29;20045;-84
2021/05/12 11:25:44;;;;;;;11.25;5.55;;;17.40;59.50;;;;;;4859378;29;20073;-85
2021/05/12 11:31:30;;;;;;;9.30;4.88;;;17.60;60.20;;;;;;4847504;29;20298;-84
2021/05/12 11:33:58;;;;;;;14.75;5.63;;;17.50;59.70;;;;;;4832440;29;20050;-84
2021/05/12 11:36:32;;;;;;;11.02;5.05;;;17.40;59.20;;;;;;4853891;29;20069;-84
2021/05/12 11:39:01;;;;;;;11.55;5.35;;;17.60;59.30;;;;;;4850800;29;20110;-86
2021/05/12 11:41:30;;;;;;;14.38;4.85;;;17.60;59.80;;;;;;4856433;29;20133;-86
2021/05/12 11:44:02;;;;;;;11.27;5.35;;;18.00;59.40;;;;;;4839433;29;20065;-85
2021/05/12 11:46:55;;;;;;;13.40;4.60;;;17.90;58.80;;;;;;4837266;29;20286;-87
2021/05/12 11:49:38;;;;;;;11.82;4.95;;;17.90;58.50;;;;;;4847974;29;20259;-85
2021/05/12 11:52:11;;;;;;;10.68;5.38;;;17.90;58.30;;;;;;4850656;29;20054;-84
2021/05/12 11:54:39;;;;;;;11.05;5.10;;;17.90;58.40;;;;;;4843075;29;20113;-84
2021/05/12 12:00:14;;;;;;;10.90;4.97;;;17.70;59.00;;;;;;4851339;29;20052;-84
2021/05/12 12:02:59;;;;;;;13.20;4.55;;;17.80;59.30;;;;;;4872594;29;20092;-84
2021/05/12 12:05:37;;;;;;;10.32;5.18;;;17.70;59.00;;;;;;4842664;29;20062;-83
2021/05/12 12:08:15;;;;;;;13.30;6.13;;;17.70;59.10;;;;;;4856681;29;20113;-82
2021/05/12 12:10:45;;;;;;;9.65;4.75;;;17.90;57.00;;;;;;4857940;29;20054;-85
2021/05/12 12:13:16;;;;;;;10.23;4.30;;;18.10;57.80;;;;;;4855700;29;20053;-85
2021/05/12 12:15:51;;;;;;;11.20;4.57;;;18.20;56.20;;;;;;4856062;29;20049;-84
2021/05/12 12:18:27;;;;;;;12.32;5.03;;;17.90;57.40;;;;;;4856402;29;20050;-85
2021/05/12 12:20:54;;;;;;;13.55;4.45;;;18.10;58.80;;;;;;4854790;29;20105;-84
2021/05/12 12:23:32;;;;;;;10.18;5.00;;;18.40;58.30;;;;;;4858907;29;20076;-86
2021/05/12 12:26:17;;;;;;;7.53;3.85;;;18.40;56.70;;;;;;4853483;29;20062;-85
2021/05/12 12:28:47;;;;;;;10.70;4.50;;;18.70;55.60;;;;;;4838724;29;20052;-86
2021/05/12 12:31:20;;;;;;;9.13;4.55;;;18.70;55.70;;;;;;4857689;29;20244;-82
2021/05/12 12:34:17;;;;;;;9.15;4.15;;;18.60;55.50;;;;;;4838569;29;20057;-84
2021/05/12 12:37:07;;;;;;;8.52;3.97;;;18.30;56.60;;;;;;4859698;29;20066;-82
2021/05/12 12:39:50;;;;;;;8.00;3.90;;;18.60;55.80;;;;;;4843037;29;20130;-86
2021/05/12 12:42:24;;;;;;;9.43;3.53;;;19.30;55.10;;;;;;4862038;29;20052;-86
2021/05/12 12:44:51;;;;;;;15.77;4.50;;;19.60;54.80;;;;;;4862743;29;20133;-84
2021/05/12 12:47:20;;;;;;;10.15;3.97;;;19.60;54.00;;;;;;4863213;29;20057;-85
2021/05/12 12:49:53;;;;;;;8.60;3.65;;;19.20;54.60;;;;;;4855279;29;20412;-85
2021/05/12 12:52:24;;;;;;;9.60;4.22;;;19.30;54.50;;;;;;4845170;29;20062;-83
2021/05/12 12:55:10;;;;;;;10.35;4.75;;;19.50;53.00;;;;;;4858332;29;20090;-82
2021/05/12 12:57:39;;;;;;;9.70;4.00;;;19.30;54.20;;;;;;4835495;29;20065;-80
2021/05/12 13:00:14;;;;;;;11.10;4.07;;;19.30;54.10;;;;;;4840519;29;20065;-85
2021/05/12 13:03:05;;;;;;;8.85;3.63;;;19.30;54.60;;;;;;4847092;29;20133;-84
2021/05/12 13:05:37;;;;;;;11.10;4.00;;;19.50;54.40;;;;;;4860373;29;20053;-83
2021/05/12 13:08:16;;;;;;;8.30;3.38;;;19.30;54.00;;;;;;4843010;29;20077;-88
2021/05/12 13:10:44;;;;;;;12.00;3.38;;;19.60;53.30;;;;;;4844264;29;20313;-86
2021/05/12 13:13:25;;;;;;;14.25;4.53;;;19.30;53.50;;;;;;4857758;29;20050;-86
2021/05/12 13:15:53;;;;;;;10.43;3.78;;;18.90;54.00;;;;;;4858030;29;20053;-85
2021/05/12 13:18:30;;;;;;;10.52;3.38;;;18.80;54.60;;;;;;4837272;29;20191;-84
2021/05/12 13:21:21;;;;;;;6.38;2.53;;;19.30;52.00;;;;;;5088521;27;1877146;-86
2021/05/12 13:23:56;;;;;;;7.03;3.20;;;19.50;50.80;;;;;;5111346;27;20082;-85
2021/05/12 13:26:25;;;;;;;10.43;3.50;;;19.30;52.70;;;;;;5106619;27;20043;-85
2021/05/12 13:28:55;;;;;;;6.18;3.40;;;19.20;50.40;;;;;;5104245;27;20055;-81
2021/05/12 13:31:23;;;;;;;7.85;2.70;;;19.50;50.90;;;;;;5132591;27;20075;-83
2021/05/12 13:33:53;;;;;;;7.50;2.78;;;19.70;49.30;;;;;;5097216;27;20055;-83
2021/05/12 13:36:22;;;;;;;6.07;2.63;;;19.70;49.90;;;;;;5113814;28;20047;-83
2021/05/12 13:38:53;;;;;;;6.85;2.83;;;19.70;50.30;;;;;;5113555;27;20085;-83
2021/05/12 13:41:22;;;;;;;8.95;2.58;;;20.00;48.70;;;;;;5108395;28;20040;-83
2021/05/12 13:43:52;;;;;;;7.00;2.10;;;20.00;48.40;;;;;;5099684;28;20047;-83
2021/05/12 13:46:22;;;;;;;5.03;2.50;;;20.00;49.40;;;;;;5119189;28;20059;-85
2021/05/12 13:48:52;;;;;;;4.85;2.60;;;20.30;47.90;;;;;;5112318;27;20096;-83
2021/05/12 13:51:22;;;;;;;6.22;2.22;;;20.40;46.40;;;;;;5092462;28;20110;-83
2021/05/12 13:53:59;;;;;;;9.82;2.58;;;20.30;46.60;;;;;;5129035;28;20342;-83
2021/05/12 13:56:48;;;;;;;6.22;2.60;;;20.60;48.40;;;;;;5099870;28;20049;-83
2021/05/12 13:59:38;;;;;;;7.55;2.35;;;20.80;45.80;;;;;;5124412;27;20063;-84
2021/05/12 14:02:16;;;;;;;5.57;2.33;;;20.70;46.50;;;;;;5095297;28;20040;-84
2021/05/12 14:04:47;;;;;;;6.80;2.22;;;20.60;46.50;;;;;;5125368;28;20043;-84
2021/05/12 14:07:19;;;;;;;8.00;2.67;;;20.40;45.30;;;;;;5091588;28;20051;-82
2021/05/12 14:09:48;;;;;;;6.25;2.67;;;19.80;47.60;;;;;;5125830;28;20040;-83
2021/05/12 14:12:19;;;;;;;5.57;2.72;;;19.60;47.50;;;;;;5105541;28;20334;-84
2021/05/12 14:14:59;;;;;;;7.60;2.80;;;19.40;48.40;;;;;;5103790;28;20364;-83
2021/05/12 14:17:27;;;;;;;10.88;2.50;;;19.60;47.20;;;;;;5080166;28;20089;-83
2021/05/12 14:19:56;;;;;;;4.85;2.42;;;19.30;49.00;;;;;;5098283;28;20111;-83
2021/05/12 14:22:25;;;;;;;11.63;2.38;;;19.50;48.90;;;;;;5084184;28;20040;-83
2021/05/12 14:24:52;;;;;;;5.15;1.80;;;19.90;51.10;;;;;;5099537;28;20059;-85
2021/05/12 14:27:21;;;;;;;6.43;2.40;;;20.00;47.20;;;;;;5097825;28;20265;-83
2021/05/12 14:29:51;;;;;;;4.57;1.87;;;20.10;47.00;;;;;;5084797;28;20071;-83
2021/05/12 14:32:19;;;;;;;3.88;1.60;;;20.10;45.60;;;;;;5098124;28;20302;-85
2021/05/12 14:34:47;;;;;;;5.85;2.20;;;20.20;45.40;;;;;;5110322;28;20070;-83
2021/05/12 14:37:18;;;;;;;8.77;2.67;;;20.50;46.60;;;;;;5078651;28;20346;-83
2021/05/12 14:39:47;;;;;;;9.93;2.40;;;20.40;45.10;;;;;;5089568;28;20047;-84
2021/05/12 14:42:17;;;;;;;4.88;1.83;;;20.20;44.30;;;;;;5105731;28;20048;-82
2021/05/12 14:44:45;;;;;;;6.03;2.40;;;20.20;43.80;;;;;;5102011;28;20049;-83
2021/05/12 14:47:15;;;;;;;3.45;1.40;;;20.00;44.90;;;;;;5084651;28;20055;-83
2021/05/12 14:49:43;;;;;;;5.68;2.05;;;20.10;46.10;;;;;;5068687;28;20260;-82
2021/05/12 14:52:17;;;;;;;3.50;1.80;;;20.30;44.80;;;;;;5101810;28;20551;-83
2021/05/12 14:54:57;;;;;;;6.30;2.22;;;20.20;47.50;;;;;;5085576;28;20258;-82
2021/05/12 14:57:49;;;;;;;;;;;20.00;47.00;;;;;;5093999;28;20058;-84
2021/05/12 15:00:19;;;;;;;7.60;1.52;;;20.10;46.70;;;;;;5064350;28;20202;-82
2021/05/12 15:02:52;;;;;;;3.90;1.40;;;19.90;46.90;;;;;;5095453;28;20052;-83
2021/05/12 15:05:50;;;;;;;4.75;1.02;;;19.60;48.80;;;;;;5087361;28;20060;-82
2021/05/12 15:08:18;;;;;;;4.70;1.27;;;19.40;48.40;;;;;;5071804;28;20323;-82
2021/05/12 15:10:56;;;;;;;5.40;1.42;;;19.00;47.80;;;;;;5074139;28;20099;-82
2021/05/12 15:13:25;;;;;;;4.40;1.77;;;18.70;49.00;;;;;;5090574;28;20050;-83
2021/05/12 15:15:54;;;;;;;8.32;1.42;;;18.50;50.80;;;;;;5067722;28;20047;-82
2021/05/12 15:18:25;;;;;;;6.22;1.70;;;18.50;51.40;;;;;;5064838;28;20115;-83
2021/05/12 15:20:52;;;;;;;4.07;1.48;;;18.20;53.40;;;;;;5066457;28;20128;-83
2021/05/12 15:23:19;;;;;;;7.15;1.73;;;18.20;53.60;;;;;;5068432;28;20196;-82
2021/05/12 15:25:47;;;;;;;6.22;2.20;;;18.00;55.30;;;;;;5083017;28;20133;-83
2021/05/12 15:28:15;;;;;;;7.50;1.98;;;17.90;57.10;;;;;;5066937;28;20052;-84
2021/05/12 15:30:42;;;;;;;5.90;2.08;;;17.90;57.60;;;;;;5102056;28;20044;-83
2021/05/12 15:33:09;;;;;;;6.40;2.05;;;17.80;58.30;;;;;;5067822;28;20098;-82
2021/05/12 15:35:36;;;;;;;5.50;2.10;;;17.80;57.60;;;;;;5066558;28;20047;-85
2021/05/12 15:38:03;;;;;;;8.38;3.67;;;17.70;59.30;;;;;;5065277;28;20048;-83
2021/05/12 15:40:30;;;;;;;6.18;2.33;;;18.00;58.90;;;;;;5081675;28;20156;-83
2021/05/12 15:43:02;;;;;;;6.97;2.35;;;18.20;57.20;;;;;;5067833;28;20301;-83
2021/05/12 15:45:31;;;;;;;11.35;3.20;;;18.20;57.50;;;;;;5073333;28;20077;-83
2021/05/12 15:48:05;;;;;;;7.43;2.13;;;18.10;56.90;;;;;;5082365;28;20137;-84
2021/05/12 15:50:33;;;;;;;6.63;2.67;;;18.20;57.30;;;;;;5103421;28;20450;-85
2021/05/12 15:53:14;;;;;;;3.78;1.70;;;18.40;54.30;;;;;;5084552;28;20075;-84
2021/05/12 15:56:13;;;;;;;8.80;2.28;;;18.50;55.90;;;;;;5087951;28;20063;-85
2021/05/12 15:58:46;;;;;;;6.60;2.47;;;18.00;57.70;;;;;;5084033;28;20047;-83
2021/05/12 16:01:13;;;;;;;6.70;2.63;;;18.00;59.90;;;;;;5078601;28;20114;-82
2021/05/12 16:03:42;;;;;;;7.55;2.65;;;17.70;61.00;;;;;;5101327;28;20055;-85
2021/05/12 16:06:15;;;;;;;5.45;2.30;;;17.70;60.70;;;;;;5085300;28;20065;-84
2021/05/12 16:08:49;;;;;;;7.35;2.38;;;17.50;61.40;;;;;;5087679;28;20039;-83
2021/05/12 16:11:21;;;;;;;4.10;2.00;;;17.30;61.80;;;;;;5084078;28;20355;-83
2021/05/12 16:13:51;;;;;;;4.15;2.13;;;17.30;61.60;;;;;;5082789;28;20047;-82
2021/05/12 16:16:20;;;;;;;6.38;2.20;;;17.40;61.50;;;;;;5106287;28;20059;-83
2021/05/12 16:18:59;;;;;;;7.45;2.53;;;17.60;61.10;;;;;;5069761;28;20390;-84
2021/05/12 16:21:26;;;;;;;7.20;2.40;;;17.80;60.30;;;;;;5068646;28;20045;-86
2021/05/12 16:23:55;;;;;;;7.05;2.08;;;17.70;60.80;;;;;;5101193;28;20060;-84
2021/05/12 16:26:23;;;;;;;9.68;2.55;;;17.60;60.90;;;;;;5080945;28;20257;-84
2021/05/12 16:28:52;;;;;;;7.15;2.25;;;17.70;61.60;;;;;;5084973;28;20240;-82
2021/05/12 16:31:21;;;;;;;7.65;2.25;;;17.70;61.50;;;;;;5070105;28;20319;-82
2021/05/12 16:33:48;;;;;;;13.20;2.60;;;17.50;61.40;;;;;;5066096;28;20055;-83
2021/05/12 16:36:18;;;;;;;5.95;2.10;;;17.40;61.10;;;;;;5068082;28;20067;-83
2021/05/12 16:38:46;;;;;;;8.30;2.58;;;17.20;61.60;;;;;;5067374;28;20052;-82
2021/05/12 16:41:13;;;;;;;6.57;2.33;;;17.00;63.10;;;;;;5084001;28;20170;-82
2021/05/12 16:43:42;;;;;;;6.18;2.58;;;17.10;63.10;;;;;;5069301;28;20081;-83
2021/05/12 16:46:13;;;;;;;7.55;2.88;;;17.00;63.90;;;;;;5068926;28;20112;-82
2021/05/12 16:48:44;;;;;;;8.18;2.40;;;17.00;64.20;;;;;;5084890;28;20081;-83
2021/05/12 16:51:14;;;;;;;8.65;2.33;;;16.90;64.70;;;;;;5098624;28;20116;-82
2021/05/12 16:53:42;;;;;;;4.93;2.28;;;16.80;64.40;;;;;;5067988;28;20067;-83
2021/05/12 16:56:09;;;;;;;9.00;3.17;;;16.60;64.40;;;;;;5083941;28;20056;-83
2021/05/12 16:58:38;;;;;;;5.85;2.70;;;16.80;64.90;;;;;;5084008;28;20107;-83
2021/05/12 17:01:14;;;;;;;7.65;2.75;;;16.70;66.00;;;;;;5063666;28;20043;-84
2021/05/12 17:03:43;;;;;;;3.90;2.58;;;16.40;66.40;;;;;;5084048;28;20064;-84
2021/05/12 17:06:10;;;;;;;6.38;2.55;;;16.60;66.30;;;;;;5066464;28;20060;-83
2021/05/12 17:08:39;;;;;;;10.88;3.25;;;16.60;65.20;;;;;;5066809;28;20068;-84
2021/05/12 17:11:09;;;;;;;7.95;2.20;;;16.60;65.90;;;;;;5082642;28;20048;-83
2021/05/12 17:13:39;;;;;;;7.60;2.60;;;16.60;64.90;;;;;;5075854;28;20066;-83
2021/05/12 17:16:07;;;;;;;8.63;2.58;;;16.80;65.00;;;;;;5067393;28;20128;-84
2021/05/12 17:18:38;;;;;;;7.47;2.28;;;16.90;64.40;;;;;;5080613;28;20112;-83
2021/05/12 17:21:06;;;;;;;;;;;17.00;63.30;;;;;;5068439;28;20228;-83
2021/05/12 17:23:33;;;;;;;6.28;2.08;;;17.30;62.50;;;;;;5082548;28;19920;-83
2021/05/12 17:26:02;;;;;;;8.45;2.47;;;17.20;62.10;;;;;;5082890;28;20087;-84
2021/05/12 17:28:32;;;;;;;4.75;2.15;;;17.50;61.30;;;;;;5083915;28;20339;-83
2021/05/12 17:30:59;;;;;;;6.70;2.65;;;18.10;59.50;;;;;;5066821;28;20104;-85
2021/05/12 17:33:27;;;;;;;7.28;2.50;;;18.60;58.40;;;;;;5067453;28;20044;-83
2021/05/12 17:35:54;;;;;;;6.95;2.40;;;18.60;58.90;;;;;;5082362;28;20046;-83
2021/05/12 17:38:23;;;;;;;8.75;2.42;;;18.30;58.40;;;;;;5066949;28;20139;-82
2021/05/12 17:40:50;;;;;;;13.43;2.30;;;18.00;58.60;;;;;;5065828;28;20146;-83
2021/05/12 17:43:18;;;;;;;6.07;2.47;;;17.90;59.60;;;;;;5039516;28;20049;-83
2021/05/12 17:45:45;;;;;;;6.78;2.10;;;17.70;60.50;;;;;;5083262;28;20102;-84
2021/05/12 17:48:15;;;;;;;5.55;2.00;;;17.40;60.50;;;;;;5077853;28;20136;-85
2021/05/12 17:50:43;;;;;;;7.63;2.47;;;17.10;61.60;;;;;;5060383;28;20182;-83
2021/05/12 17:53:10;;;;;;;8.00;2.55;;;17.00;62.60;;;;;;5075086;28;20067;-84
2021/05/12 17:55:38;;;;;;;7.55;2.20;;;16.80;63.20;;;;;;5073881;28;20060;-83
2021/05/12 17:58:05;;;;;;;5.13;2.17;;;16.50;64.30;;;;;;5076703;28;20235;-82
2021/05/12 18:00:33;;;;;;;7.90;2.47;;;16.30;65.10;;;;;;5069519;28;20048;-82
2021/05/12 18:03:02;;;;;;;7.78;2.80;;;16.20;65.50;;;;;;5056853;28;20374;-82
2021/05/12 18:05:32;;;;;;;7.60;2.67;;;16.10;65.60;;;;;;5060664;28;20112;-83
2021/05/12 18:08:04;;;;;;;4.68;2.47;;;16.00;66.20;;;;;;5081974;28;20057;-83
2021/05/12 18:10:36;;;;;;;10.13;3.30;;;16.00;67.00;;;;;;5067332;28;20053;-83
2021/05/12 18:13:23;;;;;;;5.05;2.40;;;16.00;67.20;;;;;;5080977;28;20052;-83
2021/05/12 18:18:40;;;;;;;5.90;2.80;;;15.90;67.80;;;;;;5081345;28;20036;-82
2021/05/12 18:21:11;;;;;;;6.85;2.63;;;15.90;67.70;;;;;;5082990;28;20335;-83
2021/05/12 18:23:40;;;;;;;7.28;2.60;;;15.80;68.00;;;;;;5068073;28;20048;-83
2021/05/12 18:26:08;;;;;;;5.80;2.88;;;15.70;67.50;;;;;;5062647;28;20053;-83
2021/05/12 18:28:37;;;;;;;8.75;2.88;;;15.60;67.10;;;;;;5067185;28;20259;-83
2021/05/12 18:31:07;;;;;;;6.15;2.60;;;15.70;67.20;;;;;;5068532;28;20120;-82
2021/05/12 18:33:36;;;;;;;8.43;2.42;;;15.60;67.30;;;;;;5073274;28;20057;-84
2021/05/12 18:36:14;;;;;;;7.97;3.50;;;15.60;68.20;;;;;;5068489;28;20064;-84
2021/05/12 18:38:45;;;;;;;6.80;2.65;;;15.60;68.20;;;;;;5072365;28;20048;-82
2021/05/12 18:41:15;;;;;;;6.85;3.40;;;15.60;67.70;;;;;;5074355;28;20057;-82
2021/05/12 18:43:50;;;;;;;6.75;2.90;;;15.50;68.20;;;;;;5060979;28;20049;-83
2021/05/12 18:46:26;;;;;;;7.72;3.15;;;15.50;68.40;;;;;;5054384;28;20079;-84